Hamilton Island Airport
YBHM : now visible

Airfield :











YOU CAN JOIN US ON...

 
LOGIN :

Register | Disclaimer

   EN    FR    IT 

 









Legend :    VFR   Marginal VFR   IFR   Intensive IFR   Very Intensive IFR
Visi :
Ceiling :
>= 8 km
>= 3000ft
5 to 8 km
1000 to 3000 ft
1500m to 5 km
500 to 1000 ft
800 to 1500m
200 to 500 ft
< 800m
< 200 ft
Symbols :   Thunderstorms  Fog  Heavy snow  Heavy precipitations  Wind > 20 kt






- Airport Elevation : 15 ft
- IATA code : HTI


YBHM - Hamilton Island

CURRENT METAR :
  • 280000Z AUTO 11005KT 9999 // NCD 23/18 Q1014 RF00.0/000.0

EXPIRED METARs :
  • 272330Z AUTO 12005KT 9999 // NCD 23/18 Q1014 RF00.0/000.0
  • 272300Z AUTO 00000KT 9999 // NCD 23/18 Q1014 RF00.0/000.0
  • 272230Z AUTO 00000KT 9999 // NCD 22/19 Q1014 RF00.0/000.0
  • 272200Z AUTO 00000KT 9999 // BKN079 22/19 Q1014 RF00.0/000.0
  • 272130Z AUTO 00000KT 9999 // SCT079 21/20 Q1013 RF00.0/000.0

TAF TAF YBHM
Valid from the 28 at 00:00 until the 28 at 12:00 UTC


272314Z 2800/2812 15008KT CAVOK
FM280600 09007KT CAVOK
YBBB FIR / Oceania



MET'MAP, your aeronautical weather chart ! - Copyright ORBIFLY December 2007 - Disclaimer

ORBIFLY MET'MAP TEAM :

Programming & Development : Alexandra Zaïnal
Original concept : Baudouin d'Aumeries
Technical & hardware support : Manuel Goepfert
Assistance : Marc-Olivier Méhu

Contact : metmap@orbifly.com




SOURCES & CREDITS :

   NOAA       Earth
Advisory